Terminal Aerodrome Forecast
Issued by NWS

Home | Current Version | Previous Version | Graphics & Text | Print | Product List | Glossary On
Versions: 1 2 3 4 5 6 7 8 9 10 11 12 13 14 15
000
FTUS43 KIWX 270500
TAFSBN
TAF
KSBN 270536Z 2706/2806 11005KT P6SM OVC090
      TEMPO 2706/2708 BKN025
     FM271400 04006KT P6SM BKN100
     FM280000 VRB03KT P6SM SCT200=

USA.gov is the U.S. government's official web portal to all federal, state and local government web resources and services.